Time;durP1;ratioP1;P1;durP2;ratioP2;P2;SDS_P1;SDS_P2;PMS_P1;PMS_P2;Temp;Humidity;BMP_temperature;BMP_pressure;BME280_temperature;BME280_humidity;BME280_pressure;Samples;Min_cycle;Max_cycle;Signal;HPM_P1;HPM_P2
2023/10/09 00:02:48;;;;;;;9.18;6.65;;;;;15.40;101600.00;;;;10454635;28;20279;-75
2023/10/09 00:07:55;;;;;;;12.15;7.03;;;;;15.40;101599.00;;;;10453608;28;20284;-76
2023/10/09 00:12:58;;;;;;;14.75;7.18;;;;;15.40;101596.00;;;;10457833;28;20209;-74
2023/10/09 00:17:59;;;;;;;13.43;7.03;;;;;15.40;101590.00;;;;10453167;28;20206;-74
2023/10/09 00:23:02;;;;;;;12.93;6.47;;;;;15.40;101595.00;;;;10456591;28;20289;-74
2023/10/09 00:28:18;;;;;;;13.73;7.18;;;;;15.40;101600.00;;;;10463986;28;20225;-75
2023/10/09 00:33:22;;;;;;;11.40;7.53;;;;;15.50;101625.00;;;;10458856;28;20216;-74
2023/10/09 00:38:30;;;;;;;15.18;7.20;;;;;15.80;101624.00;;;;10463664;28;20260;-74
2023/10/09 00:43:35;;;;;;;14.32;8.02;;;;;15.90;101620.00;;;;10459284;28;20206;-74
2023/10/09 00:48:40;;;;;;;13.23;7.78;;;;;16.00;101616.00;;;;10455027;28;20313;-75
2023/10/09 00:53:52;;;;;;;11.68;7.55;;;;;16.10;101625.00;;;;10456053;28;20221;-74
2023/10/09 00:59:00;;;;;;;11.98;7.45;;;;;16.10;101619.00;;;;10454211;28;20215;-73
2023/10/09 01:04:17;;;;;;;15.73;7.82;;;;;16.10;101612.00;;;;10462564;28;20205;-73
2023/10/09 01:09:22;;;;;;;15.57;7.57;;;;;16.00;101615.00;;;;10470055;28;20315;-73
2023/10/09 01:14:24;;;;;;;15.05;8.77;;;;;15.90;101603.00;;;;10459232;28;20221;-73
2023/10/09 01:19:30;;;;;;;11.43;7.38;;;;;15.90;101591.00;;;;10458714;28;20653;-73
2023/10/09 01:24:35;;;;;;;11.77;7.80;;;;;15.80;101587.00;;;;10455883;28;20702;-74
2023/10/09 01:29:39;;;;;;;11.02;7.53;;;;;15.80;101590.00;;;;10462004;28;20793;-73
2023/10/09 01:34:42;;;;;;;13.25;9.30;;;;;15.80;101585.00;;;;10458808;28;21083;-73
2023/10/09 01:39:48;;;;;;;17.13;8.45;;;;;15.80;101575.00;;;;10461783;28;20933;-73
2023/10/09 01:44:53;;;;;;;12.65;8.20;;;;;15.70;101573.00;;;;10462690;28;20244;-74
2023/10/09 01:49:57;;;;;;;13.93;8.45;;;;;15.70;101571.00;;;;10462333;28;20213;-73
2023/10/09 01:55:06;;;;;;;9.30;7.10;;;;;15.70;101572.00;;;;10464422;28;20312;-73
2023/10/09 02:00:09;;;;;;;13.43;8.38;;;;;15.70;101577.00;;;;10444692;28;20206;-73
2023/10/09 02:20:46;;;;;;;11.20;7.43;;;;;15.80;101560.00;;;;10460700;28;20887;-72
2023/10/09 02:25:53;;;;;;;14.93;7.35;;;;;15.90;101574.00;;;;10462621;28;20659;-73
2023/10/09 02:31:00;;;;;;;14.00;7.75;;;;;16.00;101570.00;;;;10457819;28;20206;-73
2023/10/09 02:36:05;;;;;;;11.45;7.78;;;;;15.90;101568.00;;;;10448235;28;20904;-73
2023/10/09 02:46:32;;;;;;;10.70;7.40;;;;;15.80;101548.00;;;;10453206;28;20244;-73
2023/10/09 02:51:41;;;;;;;12.57;7.93;;;;;15.70;101546.00;;;;10453436;28;20267;-73
2023/10/09 02:56:54;;;;;;;13.38;8.50;;;;;15.70;101560.00;;;;10455194;28;20230;-73
2023/10/09 03:01:57;;;;;;;13.60;7.47;;;;;15.70;101564.00;;;;10456829;28;20202;-73
2023/10/09 03:07:04;;;;;;;11.63;7.00;;;;;15.80;101556.00;;;;10459550;28;21120;-73
2023/10/09 03:12:09;;;;;;;12.25;7.78;;;;;15.90;101546.00;;;;10461249;28;20201;-74
2023/10/09 03:17:11;;;;;;;12.90;8.35;;;;;15.80;101538.00;;;;10451133;28;20320;-73
2023/10/09 03:22:14;;;;;;;15.85;8.55;;;;;15.70;101550.00;;;;10451266;28;20229;-73
2023/10/09 03:27:16;;;;;;;13.63;9.40;;;;;15.70;101545.00;;;;10452226;28;20198;-73
2023/10/09 03:32:19;;;;;;;14.38;8.90;;;;;15.60;101543.00;;;;10460794;28;20205;-73
2023/10/09 03:37:24;;;;;;;13.85;8.93;;;;;15.50;101549.00;;;;10459790;28;20229;-73
2023/10/09 03:42:26;;;;;;;13.73;8.23;;;;;15.40;101530.00;;;;10453915;28;20225;-73
2023/10/09 03:47:28;;;;;;;11.77;8.43;;;;;15.30;101537.00;;;;10459815;28;20213;-73
2023/10/09 03:52:30;;;;;;;15.35;9.60;;;;;15.20;101537.00;;;;10464274;28;20247;-73
2023/10/09 03:57:32;;;;;;;13.50;9.60;;;;;15.20;101531.00;;;;10457434;28;20316;-73
2023/10/09 04:02:35;;;;;;;15.73;10.23;;;;;15.20;101527.00;;;;10466322;28;20220;-73
2023/10/09 04:07:37;;;;;;;16.00;10.10;;;;;15.20;101532.00;;;;10460499;28;20213;-73
2023/10/09 04:12:39;;;;;;;15.10;9.55;;;;;15.20;101542.00;;;;10459569;28;20375;-73
2023/10/09 04:17:43;;;;;;;13.85;10.10;;;;;15.30;101560.00;;;;10467288;28;20213;-73
2023/10/09 04:22:59;;;;;;;14.63;9.68;;;;;15.40;101551.00;;;;10455728;28;20214;-72
2023/10/09 04:28:21;;;;;;;16.33;10.38;;;;;15.40;101545.00;;;;10459136;28;20264;-70
2023/10/09 04:33:42;;;;;;;15.02;10.27;;;;;15.40;101532.00;;;;10464919;28;20240;-70
2023/10/09 04:49:28;;;;;;;16.20;10.55;;;;;15.50;101541.00;;;;10454221;28;20206;-72
2023/10/09 04:54:39;;;;;;;17.23;10.55;;;;;15.50;101533.00;;;;10457373;28;20915;-71
2023/10/09 04:59:47;;;;;;;20.00;11.95;;;;;15.50;101545.00;;;;10455501;28;20195;-71
2023/10/09 05:05:15;;;;;;;20.55;11.90;;;;;15.60;101545.00;;;;10459771;28;20922;-70
2023/10/09 05:10:18;;;;;;;19.25;11.02;;;;;15.60;101528.00;;;;10462214;28;20915;-72
2023/10/09 05:15:26;;;;;;;20.08;11.32;;;;;15.50;101531.00;;;;10467640;28;20307;-70
2023/10/09 05:25:53;;;;;;;19.67;12.35;;;;;15.40;101538.00;;;;10462055;28;20276;-69
2023/10/09 05:31:06;;;;;;;21.55;12.02;;;;;15.40;101552.00;;;;10453124;28;20237;-74
2023/10/09 05:36:31;;;;;;;16.00;11.68;;;;;15.40;101545.00;;;;10466339;28;20789;-76
2023/10/09 05:41:47;;;;;;;19.73;12.23;;;;;15.40;101544.00;;;;10465514;28;20212;-75
2023/10/09 05:47:37;;;;;;;20.77;12.63;;;;;15.30;101553.00;;;;10461116;28;20300;-75
2023/10/09 06:08:16;;;;;;;20.48;12.48;;;;;15.40;101580.00;;;;10463578;28;20224;-74
2023/10/09 06:13:37;;;;;;;19.60;12.65;;;;;15.40;101563.00;;;;10459489;28;20288;-74
2023/10/09 06:18:41;;;;;;;18.67;11.27;;;;;15.50;101557.00;;;;10456203;28;20232;-74
2023/10/09 06:24:09;;;;;;;17.17;12.07;;;;;15.50;101562.00;;;;10457797;28;20213;-74
2023/10/09 06:29:14;;;;;;;17.90;11.98;;;;;15.50;101555.00;;;;10463097;28;20795;-74
2023/10/09 06:34:18;;;;;;;22.50;11.93;;;;;15.50;101558.00;;;;10461806;28;20279;-74
2023/10/09 06:44:52;;;;;;;22.15;12.88;;;;;15.70;101566.00;;;;10454086;28;20209;-76
2023/10/09 06:50:25;;;;;;;18.48;12.35;;;;;15.80;101569.00;;;;10453155;28;20267;-75
2023/10/09 07:17:01;;;;;;;20.08;12.95;;;;;16.50;101588.00;;;;10449213;28;20509;-75
2023/10/09 07:22:04;;;;;;;22.23;13.07;;;;;16.70;101583.00;;;;10453458;28;20230;-75
2023/10/09 07:27:12;;;;;;;24.45;13.07;;;;;16.80;101560.00;;;;10453467;28;20210;-76
2023/10/09 07:32:20;;;;;;;23.92;12.60;;;;;16.90;101594.00;;;;10452227;28;20772;-75
2023/10/09 07:37:23;;;;;;;21.08;12.85;;;;;17.10;101601.00;;;;10454286;28;22308;-74
2023/10/09 07:48:00;;;;;;;18.70;11.75;;;;;17.90;101593.00;;;;10434403;28;20459;-77
2023/10/09 07:53:25;;;;;;;20.73;12.60;;;;;18.40;101612.00;;;;10453400;28;20217;-71
2023/10/09 07:58:29;;;;;;;25.23;13.25;;;;;18.80;101593.00;;;;10444844;28;20221;-71
2023/10/09 08:03:33;;;;;;;20.77;12.68;;;;;18.80;101607.00;;;;10446353;28;20202;-73
2023/10/09 08:13:49;;;;;;;20.38;11.95;;;;;18.60;101620.00;;;;10456179;28;20213;-72
2023/10/09 08:18:51;;;;;;;19.55;12.95;;;;;18.50;101617.00;;;;10457499;28;20330;-74
2023/10/09 08:23:54;;;;;;;18.30;12.43;;;;;18.50;101616.00;;;;10451545;28;20373;-73
2023/10/09 08:34:27;;;;;;;18.70;12.75;;;;;19.10;101607.00;;;;10456134;28;20221;-72
2023/10/09 08:39:35;;;;;;;20.50;12.63;;;;;19.30;101597.00;;;;10453090;28;20836;-73
2023/10/09 08:44:39;;;;;;;23.73;13.13;;;;;19.40;101595.00;;;;10451480;28;20216;-73
2023/10/09 08:49:42;;;;;;;17.33;11.70;;;;;19.80;101599.00;;;;10464988;28;20807;-73
2023/10/09 08:54:44;;;;;;;18.77;11.52;;;;;20.10;101602.00;;;;10458366;28;20236;-73
2023/10/09 08:59:46;;;;;;;18.00;11.93;;;;;20.50;101627.00;;;;10454296;28;20267;-74
2023/10/09 09:04:50;;;;;;;15.40;11.25;;;;;20.90;101614.00;;;;10450328;28;20209;-73
2023/10/09 09:10:04;;;;;;;19.00;10.52;;;;;21.40;101598.00;;;;10449182;28;20854;-73
2023/10/09 09:15:20;;;;;;;20.00;11.27;;;;;21.30;101596.00;;;;10463085;28;20878;-74
2023/10/09 09:20:34;;;;;;;20.60;10.70;;;;;21.30;101606.00;;;;10454603;28;20556;-74
2023/10/09 09:25:59;;;;;;;16.23;10.77;;;;;21.20;101591.00;;;;10454639;28;20220;-77
2023/10/09 09:31:21;;;;;;;16.55;11.30;;;;;21.30;101608.00;;;;10457446;28;20216;-76
2023/10/09 09:36:28;;;;;;;15.35;10.55;;;;;21.70;101617.00;;;;10457865;28;20225;-76
2023/10/09 09:41:33;;;;;;;18.88;11.50;;;;;22.10;101606.00;;;;10436381;28;20700;-75
2023/10/09 09:46:36;;;;;;;20.92;11.73;;;;;22.30;101624.00;;;;10448705;28;20321;-76
2023/10/09 09:51:42;;;;;;;20.85;11.65;;;;;22.40;101613.00;;;;10459026;28;20193;-76
2023/10/09 09:56:52;;;;;;;15.45;10.70;;;;;22.50;101619.00;;;;10453464;28;20992;-75
2023/10/09 10:01:57;;;;;;;17.10;10.82;;;;;22.20;101623.00;;;;10436743;28;20874;-76
2023/10/09 10:07:08;;;;;;;24.13;11.50;;;;;21.90;101607.00;;;;10454867;28;20288;-77
2023/10/09 10:12:11;;;;;;;17.60;11.80;;;;;21.90;101606.00;;;;10457662;28;20190;-75
2023/10/09 10:17:16;;;;;;;16.70;11.40;;;;;21.90;101606.00;;;;10447564;28;20260;-76
2023/10/09 10:22:31;;;;;;;14.07;10.98;;;;;22.20;101595.00;;;;10455513;28;20269;-74
2023/10/09 10:27:44;;;;;;;22.02;11.88;;;;;22.60;101609.00;;;;10427463;28;20848;-77
2023/10/09 10:32:53;;;;;;;22.38;11.52;;;;;22.90;101614.00;;;;10445474;28;20189;-71
2023/10/09 10:38:20;;;;;;;20.65;11.07;;;;;22.80;101617.00;;;;10448401;28;20707;-71
2023/10/09 10:43:34;;;;;;;18.55;11.70;;;;;22.60;101612.00;;;;10450563;28;20205;-72
2023/10/09 10:48:39;;;;;;;21.00;11.52;;;;;22.60;101605.00;;;;10448409;28;20296;-73
2023/10/09 10:54:26;;;;;;;14.35;11.05;;;;;22.70;101606.00;;;;10454630;28;20201;-73
2023/10/09 10:59:14;;;;;;;17.83;10.35;;;;;22.80;101626.00;;;;10448795;28;20229;-73
2023/10/09 11:04:24;;;;;;;18.63;10.75;;;;;22.90;101613.00;;;;10450233;28;20186;-72
2023/10/09 11:09:35;;;;;;;15.38;11.18;;;;;22.90;101614.00;;;;10451203;28;20194;-72
2023/10/09 11:15:05;;;;;;;16.25;10.63;;;;;23.00;101627.00;;;;10452847;28;20271;-72
2023/10/09 11:20:31;;;;;;;18.70;11.25;;;;;23.00;101622.00;;;;10450610;28;20186;-70
2023/10/09 11:25:34;;;;;;;15.30;10.55;;;;;23.20;101636.00;;;;10441991;28;20855;-69
2023/10/09 11:30:38;;;;;;;16.77;10.18;;;;;23.20;101643.00;;;;10446219;28;20205;-70
2023/10/09 11:35:43;;;;;;;16.33;10.45;;;;;23.40;101635.00;;;;10456771;28;20296;-71
2023/10/09 11:45:56;;;;;;;16.58;9.80;;;;;23.60;101628.00;;;;10450092;28;20247;-72
2023/10/09 11:56:09;;;;;;;20.65;10.18;;;;;23.60;101598.00;;;;10448639;28;20221;-72
2023/10/09 12:01:22;;;;;;;16.52;9.05;;;;;23.70;101600.00;;;;10440567;28;20205;-72
2023/10/09 12:06:32;;;;;;;16.00;9.05;;;;;23.80;101599.00;;;;10444442;28;20202;-72
2023/10/09 12:11:34;;;;;;;15.27;9.25;;;;;24.00;101594.00;;;;10450997;28;20197;-72
2023/10/09 12:16:39;;;;;;;15.50;9.68;;;;;23.90;101604.00;;;;10449892;28;20375;-72
2023/10/09 12:21:42;;;;;;;16.48;9.38;;;;;23.50;101603.00;;;;10458079;28;20194;-72
2023/10/09 12:26:45;;;;;;;14.15;9.15;;;;;23.40;101599.00;;;;10446454;28;20201;-73
2023/10/09 12:31:47;;;;;;;13.05;8.98;;;;;23.10;101602.00;;;;10448673;28;20222;-72
2023/10/09 12:36:49;;;;;;;15.27;9.38;;;;;23.30;101600.00;;;;10447557;28;20223;-72
2023/10/09 12:41:54;;;;;;;14.07;10.18;;;;;23.30;101601.00;;;;10449870;28;20221;-72
2023/10/09 12:46:56;;;;;;;14.82;10.00;;;;;23.10;101601.00;;;;10451540;28;20229;-72
2023/10/09 12:51:59;;;;;;;18.23;9.80;;;;;23.10;101588.00;;;;10447506;28;20191;-73
2023/10/09 12:57:01;;;;;;;14.15;10.00;;;;;23.00;101601.00;;;;10465858;28;20947;-73
2023/10/09 13:02:05;;;;;;;14.50;9.32;;;;;22.90;101606.00;;;;10456522;28;21372;-74
2023/10/09 13:07:08;;;;;;;15.40;9.70;;;;;22.90;101612.00;;;;10453055;28;20206;-73
2023/10/09 13:12:17;;;;;;;14.88;9.65;;;;;23.00;101589.00;;;;10451992;28;20288;-73
2023/10/09 13:17:21;;;;;;;17.45;10.98;;;;;22.90;101576.00;;;;10459223;28;20299;-73
2023/10/09 13:22:25;;;;;;;17.45;10.63;;;;;22.70;101579.00;;;;10460207;28;20291;-73
2023/10/09 13:27:33;;;;;;;18.23;10.60;;;;;22.60;101587.00;;;;10451685;28;20197;-73
2023/10/09 13:32:36;;;;;;;22.08;10.98;;;;;22.90;101577.00;;;;10458448;28;20197;-74
2023/10/09 13:37:38;;;;;;;25.40;11.02;;;;;23.10;101591.00;;;;10453954;28;20213;-73
2023/10/09 13:42:40;;;;;;;16.40;12.07;;;;;23.00;101593.00;;;;10454312;28;20861;-73
2023/10/09 13:47:45;;;;;;;17.95;11.63;;;;;22.80;101600.00;;;;10452172;28;20182;-74
2023/10/09 13:52:48;;;;;;;16.38;10.90;;;;;22.60;101574.00;;;;10456864;28;21030;-73
2023/10/09 13:57:49;;;;;;;20.83;12.05;;;;;22.50;101575.00;;;;10452213;28;20229;-74
2023/10/09 14:02:51;;;;;;;16.95;11.07;;;;;22.30;101577.00;;;;10450474;28;20267;-73
2023/10/09 14:07:53;;;;;;;15.38;11.32;;;;;22.20;101583.00;;;;10455664;28;20224;-73
2023/10/09 14:12:56;;;;;;;18.95;11.55;;;;;22.30;101588.00;;;;10451235;28;20281;-74
2023/10/09 14:18:02;;;;;;;17.98;11.65;;;;;22.40;101573.00;;;;10450335;28;20292;-73
2023/10/09 14:23:07;;;;;;;18.40;12.60;;;;;22.60;101571.00;;;;10458715;28;20200;-73
2023/10/09 14:28:09;;;;;;;20.13;11.27;;;;;22.50;101563.00;;;;10446436;28;20190;-73
2023/10/09 14:33:22;;;;;;;19.98;12.10;;;;;22.60;101558.00;;;;10451868;28;20201;-73
2023/10/09 14:38:27;;;;;;;18.40;11.98;;;;;22.50;101564.00;;;;10453014;28;20804;-73
2023/10/09 14:43:33;;;;;;;15.43;11.10;;;;;22.50;101558.00;;;;10445781;28;20425;-73
2023/10/09 14:48:37;;;;;;;19.05;12.13;;;;;22.40;101563.00;;;;10456547;28;20194;-73
2023/10/09 14:53:40;;;;;;;16.45;11.63;;;;;22.30;101567.00;;;;10451560;28;20189;-73
2023/10/09 14:58:42;;;;;;;13.60;10.52;;;;;22.20;101571.00;;;;10458812;28;20222;-73
2023/10/09 15:03:47;;;;;;;16.67;11.90;;;;;22.10;101563.00;;;;10451426;28;20201;-72
2023/10/09 15:08:49;;;;;;;19.40;11.27;;;;;22.00;101554.00;;;;10454457;28;20296;-73
2023/10/09 15:13:53;;;;;;;17.45;12.15;;;;;21.70;101551.00;;;;10439628;28;21314;-72
2023/10/09 15:18:57;;;;;;;16.10;9.85;;;;;21.30;101552.00;;;;10442044;28;20310;-72
2023/10/09 15:24:04;;;;;;;16.92;12.32;;;;;20.90;101546.00;;;;10442104;28;20249;-72
2023/10/09 15:29:06;;;;;;;17.33;11.35;;;;;20.60;101546.00;;;;10454565;28;20645;-72
2023/10/09 15:34:09;;;;;;;22.27;13.57;;;;;20.50;101548.00;;;;10444291;28;20535;-72
2023/10/09 15:39:11;;;;;;;19.15;12.93;;;;;20.40;101556.00;;;;10448204;28;20890;-72
2023/10/09 15:44:13;;;;;;;19.85;11.70;;;;;20.30;101556.00;;;;10432308;28;20192;-72
2023/10/09 15:49:16;;;;;;;21.35;12.80;;;;;20.20;101562.00;;;;10446341;28;20217;-72
2023/10/09 15:54:19;;;;;;;20.20;12.90;;;;;20.20;101562.00;;;;10454437;28;20209;-72
2023/10/09 15:59:24;;;;;;;17.40;11.85;;;;;20.10;101553.00;;;;10449559;28;20740;-72
2023/10/09 16:04:26;;;;;;;19.38;11.68;;;;;19.90;101561.00;;;;10452652;28;20191;-72
2023/10/09 16:09:31;;;;;;;21.17;12.32;;;;;19.80;101560.00;;;;10452913;28;20198;-73
2023/10/09 16:14:34;;;;;;;19.63;12.75;;;;;19.60;101569.00;;;;10442193;28;20194;-72
2023/10/09 16:19:36;;;;;;;23.58;12.85;;;;;19.40;101562.00;;;;10455337;28;20221;-73
2023/10/09 16:24:39;;;;;;;20.92;14.20;;;;;19.20;101576.00;;;;10462001;28;20186;-73
2023/10/09 16:29:44;;;;;;;19.27;13.95;;;;;19.20;101577.00;;;;10454268;28;20287;-73
2023/10/09 16:34:53;;;;;;;19.45;12.90;;;;;19.10;101576.00;;;;10436257;28;20221;-73
2023/10/09 16:39:55;;;;;;;21.55;12.23;;;;;18.90;101584.00;;;;10453592;28;20320;-73
2023/10/09 16:44:57;;;;;;;24.05;13.13;;;;;18.70;101579.00;;;;10430326;28;20205;-73
2023/10/09 16:50:00;;;;;;;19.13;13.30;;;;;18.50;101586.00;;;;10449454;28;20187;-73
2023/10/09 16:55:08;;;;;;;24.75;14.13;;;;;18.20;101581.00;;;;10465314;28;20185;-73
2023/10/09 17:00:28;;;;;;;26.65;14.75;;;;;18.00;101583.00;;;;10462609;28;20856;-73
2023/10/09 17:05:32;;;;;;;23.20;14.38;;;;;17.80;101588.00;;;;10463873;28;20259;-73
2023/10/09 17:10:36;;;;;;;20.20;14.60;;;;;17.60;101586.00;;;;10467314;28;20193;-73
2023/10/09 17:15:38;;;;;;;25.00;15.13;;;;;17.50;101584.00;;;;10454495;28;21180;-73
2023/10/09 17:20:48;;;;;;;24.85;16.73;;;;;17.30;101593.00;;;;10451786;28;20285;-73
2023/10/09 17:25:57;;;;;;;22.52;14.27;;;;;17.20;101591.00;;;;10449997;28;20233;-73
2023/10/09 17:31:01;;;;;;;22.00;14.02;;;;;17.00;101595.00;;;;10463767;28;20598;-70
2023/10/09 17:36:07;;;;;;;21.23;14.40;;;;;16.90;101593.00;;;;10462551;28;20205;-72
2023/10/09 17:41:09;;;;;;;21.65;14.10;;;;;16.70;101602.00;;;;10452329;28;20194;-69
2023/10/09 17:46:14;;;;;;;19.27;13.20;;;;;16.60;101601.00;;;;10457344;28;20553;-68
2023/10/09 17:51:18;;;;;;;20.48;13.43;;;;;16.50;101599.00;;;;10457181;28;20194;-71
2023/10/09 17:56:25;;;;;;;21.83;12.85;;;;;16.40;101601.00;;;;10463597;28;20223;-71
2023/10/09 18:01:27;;;;;;;23.70;12.95;;;;;16.30;101601.00;;;;10461128;28;20208;-71
2023/10/09 18:06:30;;;;;;;21.88;13.55;;;;;16.20;101594.00;;;;10457278;28;20199;-69
2023/10/09 18:11:32;;;;;;;21.88;14.68;;;;;16.20;101591.00;;;;10454312;28;20272;-70
2023/10/09 18:16:34;;;;;;;30.15;15.18;;;;;16.20;101599.00;;;;10449971;28;20241;-69
2023/10/09 18:21:41;;;;;;;22.27;15.55;;;;;16.20;101602.00;;;;10455540;28;20559;-69
2023/10/09 18:26:44;;;;;;;26.05;14.82;;;;;16.20;101600.00;;;;10463294;28;20202;-71
2023/10/09 18:31:46;;;;;;;20.65;14.48;;;;;16.20;101608.00;;;;10457844;28;20858;-68
2023/10/09 18:36:49;;;;;;;20.77;14.10;;;;;16.10;101607.00;;;;10460495;28;20225;-69
2023/10/09 18:41:51;;;;;;;23.50;14.40;;;;;16.00;101609.00;;;;10454811;28;20862;-69
2023/10/09 18:46:53;;;;;;;22.35;14.27;;;;;15.90;101618.00;;;;10454417;28;20247;-69
2023/10/09 18:51:56;;;;;;;24.58;14.80;;;;;15.80;101624.00;;;;10453123;28;20209;-70
2023/10/09 18:56:58;;;;;;;22.30;14.93;;;;;15.60;101620.00;;;;10455990;28;20221;-71
2023/10/09 19:02:01;;;;;;;24.63;15.05;;;;;15.50;101621.00;;;;10458946;28;20241;-69
2023/10/09 19:07:05;;;;;;;20.13;14.23;;;;;15.40;101614.00;;;;10465361;28;20734;-70
2023/10/09 19:12:08;;;;;;;23.67;15.02;;;;;15.30;101617.00;;;;10450436;28;20547;-69
2023/10/09 19:17:11;;;;;;;21.98;14.38;;;;;15.30;101627.00;;;;10463665;28;20214;-70
2023/10/09 19:22:15;;;;;;;25.05;16.60;;;;;15.20;101619.00;;;;10457376;28;20779;-71
2023/10/09 19:27:20;;;;;;;22.08;14.32;;;;;15.20;101617.00;;;;10454915;28;20200;-69
2023/10/09 19:32:22;;;;;;;24.23;13.18;;;;;15.10;101618.00;;;;10455425;28;20252;-71
2023/10/09 19:37:24;;;;;;;21.13;16.13;;;;;15.00;101622.00;;;;10449224;28;20679;-72
2023/10/09 19:42:26;;;;;;;25.00;15.65;;;;;15.00;101625.00;;;;10439751;28;20259;-71
2023/10/09 19:47:28;;;;;;;21.70;15.27;;;;;15.00;101625.00;;;;10459443;28;20198;-70
2023/10/09 19:52:30;;;;;;;21.25;15.27;;;;;15.00;101612.00;;;;10448540;28;20190;-69
2023/10/09 19:57:33;;;;;;;21.80;15.52;;;;;14.90;101614.00;;;;10452261;28;20217;-69
2023/10/09 20:02:35;;;;;;;23.95;16.42;;;;;14.90;101621.00;;;;10452472;28;20704;-72
2023/10/09 20:07:38;;;;;;;23.17;15.23;;;;;14.90;101626.00;;;;10457837;28;20709;-70
2023/10/09 20:12:41;;;;;;;21.92;15.40;;;;;14.90;101635.00;;;;10440142;28;20191;-71
2023/10/09 20:17:43;;;;;;;21.27;14.88;;;;;14.80;101635.00;;;;10442032;28;20875;-71
2023/10/09 20:22:45;;;;;;;21.33;15.00;;;;;14.70;101636.00;;;;10458227;28;20730;-68
2023/10/09 20:27:49;;;;;;;28.35;14.13;;;;;14.60;101630.00;;;;10458007;28;20194;-73
2023/10/09 20:32:54;;;;;;;22.02;15.65;;;;;14.60;101625.00;;;;10466313;28;20209;-70
2023/10/09 20:38:01;;;;;;;19.88;15.35;;;;;14.50;101616.00;;;;10461164;28;20212;-71
2023/10/09 20:43:03;;;;;;;21.77;14.98;;;;;14.40;101613.00;;;;10459935;28;20210;-70
2023/10/09 20:48:05;;;;;;;20.00;15.35;;;;;14.30;101615.00;;;;10459517;28;20848;-69
2023/10/09 20:53:08;;;;;;;28.77;16.98;;;;;14.30;101609.00;;;;10456166;28;20753;-72
2023/10/09 20:58:10;;;;;;;19.08;13.70;;;;;14.20;101608.00;;;;10457573;28;20228;-70
2023/10/09 21:03:15;;;;;;;22.02;14.88;;;;;14.20;101605.00;;;;10451336;28;20853;-72
2023/10/09 21:08:18;;;;;;;21.58;14.75;;;;;14.10;101618.00;;;;10470051;28;20192;-73
2023/10/09 21:13:20;;;;;;;19.55;14.63;;;;;14.10;101618.00;;;;10461659;28;20186;-72
2023/10/09 21:18:22;;;;;;;19.77;13.73;;;;;14.00;101602.00;;;;10459123;28;20241;-73
2023/10/09 21:23:24;;;;;;;19.20;13.43;;;;;13.90;101599.00;;;;10463223;28;20301;-72
2023/10/09 21:28:26;;;;;;;23.63;14.20;;;;;13.90;101597.00;;;;10477953;28;20205;-72
2023/10/09 21:33:28;;;;;;;20.38;14.82;;;;;13.90;101599.00;;;;10465221;28;20909;-73
2023/10/09 21:38:30;;;;;;;24.52;16.70;;;;;13.80;101612.00;;;;10460197;28;20225;-72
2023/10/09 21:43:32;;;;;;;22.23;14.95;;;;;13.70;101609.00;;;;10461240;28;20214;-73
2023/10/09 21:48:36;;;;;;;24.27;16.02;;;;;13.70;101607.00;;;;10468530;28;20198;-73
2023/10/09 21:53:39;;;;;;;22.63;15.75;;;;;13.60;101607.00;;;;10462546;28;20214;-73
2023/10/09 21:58:42;;;;;;;20.08;14.80;;;;;13.60;101604.00;;;;10458283;28;20304;-72
2023/10/09 22:03:45;;;;;;;21.88;14.30;;;;;13.50;101606.00;;;;10447020;28;20202;-72
2023/10/09 22:08:47;;;;;;;20.10;13.95;;;;;13.40;101609.00;;;;10462295;28;20272;-73
2023/10/09 22:13:49;;;;;;;20.70;14.90;;;;;13.40;101615.00;;;;10454483;28;20234;-73
2023/10/09 22:18:51;;;;;;;22.43;15.67;;;;;13.30;101602.00;;;;10454040;28;20781;-72
2023/10/09 22:24:17;;;;;;;27.17;16.07;;;;;13.30;101596.00;;;;10457267;28;20281;-72
2023/10/09 22:29:20;;;;;;;22.47;15.73;;;;;13.30;101590.00;;;;10466008;28;20209;-72
2023/10/09 22:34:22;;;;;;;21.23;15.73;;;;;13.30;101583.00;;;;10462858;28;20206;-72
2023/10/09 22:39:33;;;;;;;22.37;14.83;;;;;13.20;101586.00;;;;10469813;28;20280;-71
2023/10/09 22:44:38;;;;;;;21.40;16.00;;;;;13.20;101572.00;;;;10456552;28;20200;-72
2023/10/09 22:49:43;;;;;;;23.67;16.37;;;;;13.20;101578.00;;;;10461947;28;20691;-72
2023/10/09 22:54:48;;;;;;;25.67;16.27;;;;;13.20;101582.00;;;;10459930;28;20187;-73
2023/10/09 22:59:51;;;;;;;24.70;17.60;;;;;13.20;101582.00;;;;10444199;28;20252;-72
2023/10/09 23:05:03;;;;;;;22.80;17.03;;;;;13.20;101575.00;;;;10464405;28;20227;-72
2023/10/09 23:10:15;;;;;;;22.53;17.07;;;;;13.20;101558.00;;;;10466882;28;20745;-72
2023/10/09 23:15:35;;;;;;;25.50;18.50;;;;;13.20;101556.00;;;;10453510;28;20280;-73
2023/10/09 23:20:49;;;;;;;29.67;19.37;;;;;13.30;101553.00;;;;10458724;28;20222;-73
2023/10/09 23:25:54;;;;;;;32.00;18.90;;;;;13.30;101556.00;;;;10453751;28;20857;-73
2023/10/09 23:30:57;;;;;;;24.67;17.20;;;;;13.30;101553.00;;;;10454934;28;20201;-72
2023/10/09 23:36:08;;;;;;;24.53;17.03;;;;;13.30;101562.00;;;;10461933;28;20794;-72
2023/10/09 23:41:10;;;;;;;24.43;17.50;;;;;13.20;101567.00;;;;10454964;28;20253;-73
2023/10/09 23:46:16;;;;;;;27.33;17.83;;;;;13.20;101566.00;;;;10464195;28;20205;-72
2023/10/09 23:51:19;;;;;;;27.77;16.80;;;;;13.10;101558.00;;;;10448116;28;20834;-73
2023/10/09 23:56:42;;;;;;;21.43;15.83;;;;;13.10;101551.00;;;;10461323;28;20279;-73
